createdAt,value
2019-02-07T00:00:26.512Z,5.67
2019-02-07T00:02:56.200Z,6.45
2019-02-07T00:05:25.908Z,5.08
2019-02-07T00:07:56.608Z,8.50
2019-02-07T00:10:26.296Z,6.33
2019-02-07T00:12:57.608Z,6.75
2019-02-07T00:15:27.519Z,7.12
2019-02-07T00:17:57.230Z,6.12
2019-02-07T00:20:34.084Z,7.78
2019-02-07T00:23:04.240Z,6.50
2019-02-07T00:25:35.536Z,6.67
2019-02-07T00:28:05.519Z,7.05
2019-02-07T00:30:35.744Z,5.25
2019-02-07T00:33:05.619Z,6.80
2019-02-07T00:35:35.300Z,6.65
2019-02-07T00:38:05.040Z,7.42
2019-02-07T00:40:35.075Z,7.33
2019-02-07T00:43:05.045Z,8.25
2019-02-07T00:45:34.756Z,8.43
2019-02-07T00:48:05.556Z,7.47
2019-02-07T00:50:35.509Z,6.95
2019-02-07T00:53:05.715Z,6.53
2019-02-07T00:55:35.420Z,9.20
2019-02-07T00:58:05.343Z,9.10
2019-02-07T01:00:35.308Z,8.23
2019-02-07T01:03:05.211Z,6.70
2019-02-07T01:05:34.931Z,7.78
2019-02-07T01:08:05.340Z,9.60
2019-02-07T01:10:37.380Z,8.30
2019-02-07T01:13:10.296Z,7.75
2019-02-07T01:15:40.003Z,8.80
2019-02-07T01:18:10.372Z,8.20
2019-02-07T01:20:41.013Z,7.62
2019-02-07T01:23:11.180Z,5.12
2019-02-07T01:25:41.369Z,9.25
2019-02-07T01:28:11.635Z,7.42
2019-02-07T01:30:42.379Z,6.45
2019-02-07T01:33:12.079Z,9.40
2019-02-07T01:35:43.995Z,7.62
2019-02-07T01:38:16.138Z,8.05
2019-02-07T01:40:45.987Z,5.28
2019-02-07T01:43:16.929Z,7.65
2019-02-07T01:45:48.116Z,6.65
2019-02-07T01:48:18.150Z,6.85
2019-02-07T01:50:48.067Z,7.25
2019-02-07T01:53:17.768Z,7.92
2019-02-07T01:55:48.383Z,6.47
2019-02-07T01:58:18.333Z,6.70
2019-02-07T02:00:48.248Z,6.28
2019-02-07T02:03:17.968Z,8.80
2019-02-07T02:05:47.928Z,8.23
2019-02-07T02:08:19.089Z,9.03
2019-02-07T02:10:49.270Z,7.90
2019-02-07T02:13:19.385Z,6.05
2019-02-07T02:15:49.521Z,8.20
2019-02-07T02:18:19.492Z,8.68
2019-02-07T02:20:49.597Z,6.15
2019-02-07T02:23:21.767Z,7.05
2019-02-07T02:25:52.567Z,6.42
2019-02-07T02:28:22.923Z,7.45
2019-02-07T02:30:52.772Z,7.90
2019-02-07T02:33:22.542Z,5.78
2019-02-07T02:35:52.230Z,5.70
2019-02-07T02:38:21.939Z,6.53
2019-02-07T02:40:51.933Z,4.72
2019-02-07T02:43:22.892Z,5.20
2019-02-07T02:45:52.866Z,7.75
2019-02-07T02:48:22.928Z,6.15
2019-02-07T02:50:53.566Z,6.33
2019-02-07T02:53:24.432Z,4.92
2019-02-07T02:55:54.763Z,6.42
2019-02-07T02:58:25.667Z,6.15
2019-02-07T03:01:14.417Z,4.80
2019-02-07T03:03:45.872Z,3.70
2019-02-07T03:06:23.151Z,4.53
2019-02-07T03:09:03.552Z,5.15
2019-02-07T03:11:40.249Z,4.67
2019-02-07T03:14:15.349Z,4.42
2019-02-07T03:16:57.540Z,9.40
2019-02-07T03:19:46.432Z,6.00
2019-02-07T03:22:33.949Z,3.75
2019-02-07T03:25:27.088Z,5.53
2019-02-07T03:28:14.360Z,6.97
2019-02-07T03:30:51.985Z,6.15
2019-02-07T03:33:26.461Z,5.30
2019-02-07T03:35:58.208Z,5.05
2019-02-07T03:38:30.888Z,6.35
2019-02-07T03:41:05.328Z,6.20
2019-02-07T03:43:54.305Z,6.15
2019-02-07T03:46:26.042Z,6.17
2019-02-07T03:49:09.536Z,5.95
2019-02-07T03:51:58.805Z,6.45
2019-02-07T03:54:46.297Z,8.08
2019-02-07T03:57:24.258Z,4.97
2019-02-07T04:00:01.934Z,7.10
2019-02-07T04:02:46.132Z,6.67
2019-02-07T04:05:17.492Z,7.08
2019-02-07T04:07:49.086Z,7.50
2019-02-07T04:10:27.733Z,4.37
2019-02-07T04:13:06.112Z,7.25
2019-02-07T04:15:48.507Z,6.42
2019-02-07T04:18:21.008Z,8.00
2019-02-07T04:20:54.352Z,8.43
2019-02-07T04:23:31.629Z,7.67
2019-02-07T04:26:20.666Z,8.53
2019-02-07T04:28:53.344Z,6.62
2019-02-07T04:31:37.680Z,8.43
2019-02-07T04:34:15.253Z,6.30
2019-02-07T04:36:56.760Z,9.50
2019-02-07T04:39:31.476Z,6.50
2019-02-07T04:42:19.192Z,8.28
2019-02-07T04:44:55.873Z,7.20
2019-02-07T04:47:36.057Z,7.70
2019-02-07T04:50:19.488Z,7.70
2019-02-07T04:53:12.968Z,7.33
2019-02-07T04:55:48.439Z,10.03
2019-02-07T04:58:36.800Z,8.13
2019-02-07T05:01:14.498Z,7.65
2019-02-07T05:03:47.229Z,6.92
2019-02-07T05:06:25.850Z,9.45
2019-02-07T05:08:59.971Z,6.67
2019-02-07T05:11:49.881Z,8.15
2019-02-07T05:14:22.629Z,9.35
2019-02-07T05:17:11.496Z,5.97
2019-02-07T05:19:42.840Z,9.28
2019-02-07T05:22:30.548Z,7.87
2019-02-07T05:25:26.156Z,8.78
2019-02-07T05:28:00.648Z,6.37
2019-02-07T05:30:47.538Z,11.55
2019-02-07T05:33:25.360Z,10.38
2019-02-07T05:35:56.961Z,9.63
2019-02-07T05:38:43.540Z,9.60
2019-02-07T05:41:17.496Z,8.50
2019-02-07T05:44:19.496Z,8.60
2019-02-07T05:47:04.693Z,7.33
2019-02-07T05:49:38.990Z,11.00
2019-02-07T05:52:12.690Z,9.98
2019-02-07T05:55:00.574Z,10.60
2019-02-07T05:57:46.452Z,9.05
2019-02-07T06:00:20.978Z,10.78
2019-02-07T06:03:00.588Z,10.50
2019-02-07T06:05:47.186Z,10.23
2019-02-07T06:08:30.687Z,9.55
2019-02-07T06:11:19.944Z,9.00
2019-02-07T06:13:51.541Z,8.63
2019-02-07T06:16:49.276Z,9.30
2019-02-07T06:19:30.317Z,11.12
2019-02-07T06:22:18.115Z,8.93
2019-02-07T06:25:02.323Z,8.40
2019-02-07T06:27:44.672Z,9.50
2019-02-07T06:30:40.710Z,9.83
2019-02-07T06:33:23.680Z,7.87
2019-02-07T06:36:04.932Z,7.40
2019-02-07T06:38:41.072Z,10.18
2019-02-07T06:41:15.085Z,10.25
2019-02-07T06:44:04.873Z,8.95
2019-02-07T06:46:55.508Z,12.65
2019-02-07T06:49:36.504Z,11.45
2019-02-07T06:52:10.997Z,12.25
2019-02-07T06:54:54.124Z,9.05
2019-02-07T06:57:25.872Z,10.40
2019-02-07T06:59:57.616Z,11.38
2019-02-07T07:02:29.256Z,9.48
2019-02-07T07:05:00.977Z,9.85
2019-02-07T07:07:44.125Z,12.18
2019-02-07T07:10:32.818Z,11.78
2019-02-07T07:13:10.824Z,10.95
2019-02-07T07:15:42.424Z,9.00
2019-02-07T07:18:17.576Z,12.68
2019-02-07T07:20:49.178Z,12.33
2019-02-07T07:23:40.253Z,11.20
2019-02-07T07:26:11.738Z,10.90
2019-02-07T07:28:55.121Z,13.38
2019-02-07T07:31:32.805Z,10.70
2019-02-07T07:34:12.804Z,11.68
2019-02-07T07:36:52.101Z,9.58
2019-02-07T07:39:30.031Z,10.45
2019-02-07T07:42:17.329Z,11.88
2019-02-07T07:44:48.833Z,9.18
2019-02-07T07:47:23.228Z,13.15
2019-02-07T07:49:57.443Z,13.25
2019-02-07T07:52:41.432Z,12.10
2019-02-07T07:55:13.000Z,10.23
2019-02-07T07:57:45.494Z,12.05
2019-02-07T08:00:32.714Z,11.97
2019-02-07T08:03:19.112Z,12.68
2019-02-07T08:06:09.156Z,13.10
2019-02-07T08:08:57.836Z,13.28
2019-02-07T08:11:45.993Z,11.93
2019-02-07T08:14:20.136Z,12.63
2019-02-07T08:17:10.982Z,13.53
2019-02-07T08:19:43.175Z,13.20
2019-02-07T08:22:23.776Z,13.80
2019-02-07T08:25:13.088Z,12.78
2019-02-07T08:27:56.323Z,11.88
2019-02-07T08:30:36.288Z,13.13
2019-02-07T08:33:11.668Z,15.30
2019-02-07T08:35:58.861Z,15.38
2019-02-07T08:38:30.340Z,13.60
2019-02-07T08:41:14.580Z,11.15
2019-02-07T08:43:52.204Z,14.68
2019-02-07T08:46:23.540Z,13.80
2019-02-07T08:49:10.681Z,14.47
2019-02-07T08:51:50.858Z,14.95
2019-02-07T08:54:39.217Z,14.53
2019-02-07T08:57:19.665Z,14.43
2019-02-07T08:59:51.492Z,12.55
2019-02-07T09:02:34.480Z,13.03
2019-02-07T09:05:22.204Z,14.85
2019-02-07T09:07:55.477Z,13.18
2019-02-07T09:10:43.704Z,9.78
2019-02-07T09:13:17.709Z,10.88
2019-02-07T09:16:05.016Z,11.50
2019-02-07T09:18:52.440Z,12.90
2019-02-07T09:21:39.901Z,15.00
2019-02-07T09:24:13.722Z,13.70
2019-02-07T09:27:02.900Z,13.48
2019-02-07T09:29:50.708Z,12.88
2019-02-07T09:32:37.869Z,13.98
2019-02-07T09:35:26.308Z,13.13
2019-02-07T09:38:13.769Z,13.32
2019-02-07T09:41:01.521Z,14.15
2019-02-07T09:43:41.738Z,14.68
2019-02-07T09:46:18.729Z,13.03
2019-02-07T09:49:05.905Z,14.90
2019-02-07T09:51:55.028Z,13.25
2019-02-07T09:54:35.105Z,14.47
2019-02-07T09:57:12.640Z,14.30
2019-02-07T10:00:01.730Z,13.72
2019-02-07T10:02:38.501Z,13.98
2019-02-07T10:05:14.093Z,13.93
2019-02-07T10:07:45.472Z,13.83
2019-02-07T10:10:31.993Z,12.03
2019-02-07T10:13:06.145Z,13.72
2019-02-07T10:15:55.619Z,17.57
2019-02-07T10:18:33.171Z,15.00
2019-02-07T10:21:17.161Z,15.80
2019-02-07T10:23:48.497Z,13.95
2019-02-07T10:26:19.828Z,12.88
2019-02-07T10:29:03.109Z,14.00
2019-02-07T10:31:40.420Z,15.83
2019-02-07T10:34:14.632Z,14.90
2019-02-07T10:36:46.234Z,14.83
2019-02-07T10:39:20.748Z,16.60
2019-02-07T10:42:08.522Z,16.27
2019-02-07T10:44:57.727Z,14.25
2019-02-07T10:47:30.518Z,15.35
2019-02-07T10:50:05.229Z,16.05
2019-02-07T10:52:42.947Z,14.58
2019-02-07T10:55:21.044Z,16.75
2019-02-07T10:57:52.775Z,15.90
2019-02-07T11:00:29.013Z,14.00
2019-02-07T11:03:00.682Z,15.08
2019-02-07T11:05:49.916Z,14.00
2019-02-07T11:08:28.075Z,15.15
2019-02-07T11:11:06.774Z,15.58
2019-02-07T11:13:47.061Z,16.65
2019-02-07T11:16:33.758Z,16.45
2019-02-07T11:19:21.009Z,14.83
2019-02-07T11:21:51.682Z,15.48
2019-02-07T11:24:23.688Z,16.40
2019-02-07T11:27:11.285Z,16.17
2019-02-07T11:29:54.724Z,17.40
2019-02-07T11:32:26.506Z,14.53
2019-02-07T11:35:01.471Z,16.60
2019-02-07T11:37:55.510Z,13.48
2019-02-07T11:40:30.438Z,17.55
2019-02-07T11:43:18.840Z,15.88
2019-02-07T11:45:57.276Z,14.43
2019-02-07T11:48:31.815Z,15.48
2019-02-07T11:51:10.826Z,16.52
2019-02-07T11:53:57.568Z,16.23
2019-02-07T11:56:46.458Z,16.32
2019-02-07T11:59:22.814Z,16.15
2019-02-07T12:02:09.108Z,18.12
2019-02-07T12:04:49.348Z,14.30
2019-02-07T12:07:21.092Z,15.75
2019-02-07T12:09:58.511Z,17.37
2019-02-07T12:12:46.453Z,14.73
2019-02-07T12:15:21.105Z,15.25
2019-02-07T12:18:00.602Z,16.50
2019-02-07T12:20:38.110Z,17.57
2019-02-07T12:23:26.086Z,17.70
2019-02-07T12:26:06.213Z,16.48
2019-02-07T12:28:50.448Z,16.05
2019-02-07T12:31:34.532Z,18.17
2019-02-07T12:34:09.236Z,15.85
2019-02-07T12:36:50.182Z,17.45
2019-02-07T12:39:37.764Z,16.80
2019-02-07T12:42:16.201Z,16.90
2019-02-07T12:44:47.980Z,17.48
2019-02-07T12:47:35.101Z,17.17
2019-02-07T12:50:26.906Z,19.62
2019-02-07T12:52:58.646Z,15.48
2019-02-07T12:55:51.978Z,17.50
2019-02-07T12:58:32.046Z,17.23
2019-02-07T13:01:03.777Z,15.85
2019-02-07T13:03:35.378Z,16.27
2019-02-07T13:06:07.977Z,17.90
2019-02-07T13:08:55.884Z,19.32
2019-02-07T13:11:59.241Z,16.65
2019-02-07T13:14:31.020Z,15.95
2019-02-07T13:17:02.759Z,17.30
2019-02-07T13:19:40.712Z,16.90
2019-02-07T13:22:17.233Z,17.48
2019-02-07T13:24:58.315Z,18.50
2019-02-07T13:27:35.791Z,17.70
2019-02-07T13:30:16.347Z,15.78
2019-02-07T13:32:49.646Z,15.53
2019-02-07T13:35:27.304Z,14.68
2019-02-07T13:38:17.617Z,18.87
2019-02-07T13:40:52.444Z,17.10
2019-02-07T13:43:40.420Z,18.37
2019-02-07T13:46:11.901Z,17.73
2019-02-07T13:48:52.970Z,17.75
2019-02-07T13:51:24.703Z,18.45
2019-02-07T13:54:14.869Z,19.00
2019-02-07T13:57:02.656Z,15.08
2019-02-07T13:59:42.104Z,15.53
2019-02-07T14:02:20.289Z,20.68
2019-02-07T14:07:55.253Z,18.32
2019-02-07T14:10:42.941Z,18.05
2019-02-07T14:13:20.791Z,18.82
2019-02-07T14:16:16.411Z,15.50
2019-02-07T14:18:53.550Z,19.30
2019-02-07T14:21:25.153Z,16.57
2019-02-07T14:24:08.545Z,17.07
2019-02-07T14:26:45.274Z,18.05
2019-02-07T14:29:25.851Z,16.87
2019-02-07T14:31:57.599Z,19.40
2019-02-07T14:34:32.083Z,18.55
2019-02-07T14:37:12.737Z,18.52
2019-02-07T14:39:47.330Z,19.50
2019-02-07T14:42:34.118Z,18.32
2019-02-07T14:45:09.741Z,16.77
2019-02-07T14:47:45.709Z,19.00
2019-02-07T14:50:15.944Z,18.75
2019-02-07T14:52:47.105Z,19.25
2019-02-07T14:55:22.994Z,19.20
2019-02-07T14:57:52.893Z,18.02
2019-02-07T15:00:26.827Z,16.67
2019-02-07T15:03:00.541Z,16.95
2019-02-07T15:05:31.499Z,18.05
2019-02-07T15:08:02.006Z,18.37
2019-02-07T15:10:31.841Z,19.87
2019-02-07T15:13:03.914Z,17.77
2019-02-07T15:15:34.053Z,19.15
2019-02-07T15:18:04.685Z,17.80
2019-02-07T15:20:35.433Z,18.60
2019-02-07T15:23:08.181Z,17.98
2019-02-07T15:25:38.149Z,17.32
2019-02-07T15:28:08.065Z,19.12
2019-02-07T15:30:39.021Z,19.55
2019-02-07T15:33:08.929Z,18.80
2019-02-07T15:35:44.337Z,17.85
2019-02-07T15:38:36.257Z,17.27
2019-02-07T15:41:08.171Z,17.55
2019-02-07T15:43:38.061Z,19.85
2019-02-07T15:46:09.519Z,20.50
2019-02-07T15:48:39.729Z,16.07
2019-02-07T15:51:16.409Z,17.27
2019-02-07T15:53:46.377Z,15.60
2019-02-07T15:56:19.974Z,18.98
2019-02-07T15:58:54.202Z,17.32
2019-02-07T16:01:27.021Z,17.80
2019-02-07T16:03:58.353Z,20.25
2019-02-07T16:06:28.311Z,17.05
2019-02-07T16:08:59.819Z,20.88
2019-02-07T16:11:29.690Z,18.35
2019-02-07T16:14:08.964Z,18.82
2019-02-07T16:16:39.147Z,18.85
2019-02-07T16:19:08.989Z,17.15
2019-02-07T16:21:39.201Z,18.48
2019-02-07T16:24:10.069Z,17.73
2019-02-07T16:26:40.069Z,19.87
2019-02-07T16:29:11.961Z,17.60
2019-02-07T16:31:42.198Z,17.87
2019-02-07T16:34:14.369Z,19.90
2019-02-07T16:36:46.278Z,17.23
2019-02-07T16:39:25.635Z,19.10
2019-02-07T16:42:06.614Z,19.77
2019-02-07T16:44:39.062Z,19.77
2019-02-07T16:47:08.917Z,19.48
2019-02-07T16:49:39.102Z,19.60
2019-02-07T16:52:14.761Z,19.10
2019-02-07T16:54:44.817Z,18.42
2019-02-07T16:57:15.359Z,18.25
2019-02-07T16:59:51.353Z,20.12
2019-02-07T17:02:21.189Z,18.80
2019-02-07T17:04:54.149Z,17.05
2019-02-07T17:07:24.375Z,18.45
2019-02-07T17:09:57.829Z,19.67
2019-02-07T17:12:27.823Z,19.90
2019-02-07T17:14:57.918Z,17.70
2019-02-07T17:17:28.946Z,18.75
2019-02-07T17:19:59.981Z,18.57
2019-02-07T17:22:32.695Z,18.52
2019-02-07T17:25:02.790Z,19.52
2019-02-07T17:27:32.629Z,20.00
2019-02-07T17:30:14.855Z,19.77
2019-02-07T17:32:45.851Z,18.92
2019-02-07T17:35:18.277Z,19.92
2019-02-07T17:37:51.903Z,18.23
2019-02-07T17:40:27.253Z,19.42
2019-02-07T17:42:58.346Z,19.55
2019-02-07T17:45:32.810Z,20.68
2019-02-07T17:48:03.665Z,17.57
2019-02-07T17:50:39.526Z,19.15
2019-02-07T17:53:13.913Z,17.48
2019-02-07T17:55:49.441Z,18.05
2019-02-07T17:58:19.401Z,18.87
2019-02-07T18:01:01.418Z,19.73
2019-02-07T18:03:41.542Z,20.35
2019-02-07T18:06:12.829Z,21.12
2019-02-07T18:08:42.786Z,17.90
2019-02-07T18:11:12.957Z,18.95
2019-02-07T18:13:44.938Z,18.27
2019-02-07T18:16:15.162Z,17.80
2019-02-07T18:18:51.473Z,18.40
2019-02-07T18:21:21.578Z,18.25
2019-02-07T18:23:58.775Z,20.30
2019-02-07T18:26:30.493Z,19.92
2019-02-07T18:29:07.289Z,19.60
2019-02-07T18:31:37.635Z,21.48
2019-02-07T18:34:07.746Z,19.85
2019-02-07T18:36:40.865Z,20.05
2019-02-07T18:39:16.806Z,21.95
2019-02-07T18:41:47.595Z,19.32
2019-02-07T18:44:18.599Z,20.52
2019-02-07T18:46:52.338Z,18.27
2019-02-07T18:49:24.437Z,18.85
2019-02-07T18:51:55.220Z,19.35
2019-02-07T18:54:34.095Z,19.90
2019-02-07T18:57:09.786Z,19.50
2019-02-07T18:59:39.751Z,19.35
2019-02-07T19:02:09.931Z,18.55
2019-02-07T19:04:40.945Z,18.98
2019-02-07T19:07:16.742Z,19.45
2019-02-07T19:09:46.766Z,19.02
2019-02-07T19:12:16.630Z,18.80
2019-02-07T19:14:46.593Z,20.32
2019-02-07T19:17:16.674Z,21.07
2019-02-07T19:19:46.676Z,20.20
2019-02-07T19:22:16.762Z,20.10
2019-02-07T19:24:49.250Z,18.55
2019-02-07T19:27:19.090Z,19.00
2019-02-07T19:29:49.055Z,18.62
2019-02-07T19:32:21.110Z,19.07
2019-02-07T19:34:51.382Z,17.52
2019-02-07T19:37:22.511Z,18.30
2019-02-07T19:39:52.699Z,21.15
2019-02-07T19:42:22.638Z,20.10
2019-02-07T19:44:52.619Z,22.15
2019-02-07T19:47:23.674Z,20.17
2019-02-07T19:49:54.908Z,20.90
2019-02-07T19:52:26.638Z,19.62
2019-02-07T19:54:56.603Z,18.05
2019-02-07T19:57:26.722Z,19.07
2019-02-07T19:59:56.826Z,18.87
2019-02-07T20:02:28.906Z,19.05
2019-02-07T20:05:00.317Z,20.35
2019-02-07T20:07:30.433Z,19.20
2019-02-07T20:10:01.274Z,21.62
2019-02-07T20:12:31.574Z,18.87
2019-02-07T20:15:02.648Z,19.73
2019-02-07T20:17:33.382Z,20.43
2019-02-07T20:20:07.890Z,21.10
2019-02-07T20:22:38.906Z,19.35
2019-02-07T20:25:13.326Z,20.65
2019-02-07T20:27:43.042Z,20.45
2019-02-07T20:30:22.159Z,20.77
2019-02-07T20:32:52.258Z,20.25
2019-02-07T20:35:23.018Z,20.45
2019-02-07T20:37:53.810Z,21.48
2019-02-07T20:40:30.123Z,21.57
2019-02-07T20:43:00.237Z,22.02
2019-02-07T20:45:30.163Z,20.48
2019-02-07T20:48:00.778Z,20.23
2019-02-07T20:53:30.932Z,22.95
2019-02-07T20:56:01.116Z,20.25
2019-02-07T20:58:30.947Z,22.85
2019-02-07T21:01:02.155Z,21.37
2019-02-07T21:03:34.274Z,20.20
2019-02-07T21:06:05.398Z,19.95
2019-02-07T21:08:36.338Z,21.05
2019-02-07T21:11:06.157Z,19.98
2019-02-07T21:13:36.163Z,19.15
2019-02-07T21:16:07.198Z,18.65
2019-02-07T21:18:37.946Z,20.52
2019-02-07T21:21:13.443Z,20.80
2019-02-07T21:23:49.210Z,19.48
2019-02-07T21:26:18.914Z,20.65
2019-02-07T21:28:54.898Z,18.92
2019-02-07T21:31:24.798Z,20.70
2019-02-07T21:33:55.135Z,19.17
2019-02-07T21:36:27.202Z,20.72
2019-02-07T21:39:00.670Z,20.55
2019-02-07T21:41:33.976Z,19.70
2019-02-07T21:44:07.173Z,20.15
2019-02-07T21:46:37.848Z,20.00
2019-02-07T21:49:09.888Z,19.87
2019-02-07T21:51:40.916Z,21.45
2019-02-07T21:54:10.754Z,21.68
2019-02-07T21:56:41.998Z,19.02
2019-02-07T21:59:12.160Z,21.23
2019-02-07T22:01:42.235Z,21.60
2019-02-07T22:04:11.934Z,20.77
2019-02-07T22:06:42.858Z,20.32
2019-02-07T22:09:14.040Z,21.25
2019-02-07T22:11:45.750Z,20.95
2019-02-07T22:14:16.767Z,21.37
2019-02-07T22:16:49.967Z,20.08
2019-02-07T22:19:28.894Z,19.55
2019-02-07T22:21:59.198Z,20.17
2019-02-07T22:24:29.152Z,20.02
2019-02-07T22:27:00.024Z,19.48
2019-02-07T22:29:30.266Z,21.42
2019-02-07T22:32:03.137Z,20.70
2019-02-07T22:34:33.127Z,20.35
2019-02-07T22:37:06.441Z,20.57
2019-02-07T22:39:38.716Z,21.10
2019-02-07T22:42:08.778Z,21.17
2019-02-07T22:44:41.618Z,19.85
2019-02-07T22:47:12.460Z,19.35
2019-02-07T22:49:42.974Z,22.02
2019-02-07T22:52:13.723Z,19.25
2019-02-07T22:54:53.018Z,20.08
2019-02-07T22:57:26.230Z,19.85
2019-02-07T22:59:56.074Z,19.23
2019-02-07T23:02:28.067Z,21.27
2019-02-07T23:04:59.907Z,19.60
2019-02-07T23:07:29.595Z,21.20
2019-02-07T23:09:59.359Z,20.75
2019-02-07T23:12:29.131Z,20.77
2019-02-07T23:15:01.964Z,18.37
2019-02-07T23:17:31.668Z,18.95
2019-02-07T23:20:01.671Z,20.25
2019-02-07T23:22:37.499Z,19.65
2019-02-07T23:25:10.251Z,19.32
2019-02-07T23:27:42.053Z,18.70
2019-02-07T23:30:18.210Z,19.20
2019-02-07T23:32:48.255Z,19.42
2019-02-07T23:35:24.890Z,19.75
2019-02-07T23:37:55.850Z,18.70
2019-02-07T23:40:36.602Z,21.75
2019-02-07T23:43:07.552Z,20.60
2019-02-07T23:45:40.731Z,21.65
2019-02-07T23:48:12.715Z,24.00
2019-02-07T23:50:45.675Z,21.02
2019-02-07T23:53:18.643Z,20.62
2019-02-07T23:55:48.647Z,20.92
2019-02-07T23:58:19.542Z,20.50
